Monday, December 5, 2016, 11:35 AM EST

KSHD, Staunton / Shenandoah

Location: Weyers Cave, VA, United States Lat: 38.267
Local Time: 11:35 AM EST (16:35 GMT) Lon: -78.9
Time Zone: US/Eastern Elev: 1200 ft

Show me the last for .
Show Decoded

2016-12-05 11:15 METAR KSHD 051615Z AUTO 00000KT 10SM CLR 10/04 A3003 RMK AO2 T00980044 =
2016-12-05 10:55 METAR KSHD 051555Z AUTO 00000KT 10SM CLR 09/05 A3003 RMK AO2 T00870051 =
2016-12-05 10:35 METAR KSHD 051535Z AUTO 00000KT 10SM CLR 08/05 A3003 RMK AO2 T00760050 =
2016-12-05 10:15 METAR KSHD 051515Z AUTO 00000KT 10SM CLR 07/05 A3003 RMK AO2 T00660047 =
2016-12-05 09:55 METAR KSHD 051455Z AUTO 00000KT 10SM CLR 06/04 A3002 RMK AO2 T00560043 =
2016-12-05 09:35 METAR KSHD 051435Z AUTO 27003KT 10SM CLR 05/04 A3001 RMK AO2 T00480039 =
2016-12-05 09:15 METAR KSHD 051415Z AUTO 00000KT 10SM CLR 03/03 A3001 RMK AO2 T00280027 =
2016-12-05 08:55 METAR KSHD 051355Z AUTO 00000KT 10SM CLR 01/01 A3001 RMK AO2 T00140013 =
2016-12-05 08:35 METAR KSHD 051335Z AUTO 21004KT 5SM BR CLR 01/01 A3000 RMK AO2 T00090008 =
2016-12-05 08:15 METAR KSHD 051315Z AUTO 00000KT 7SM CLR 01/01 A3001 RMK AO2 T00060005 =
2016-12-05 07:55 METAR KSHD 051255Z AUTO 00000KT 7SM CLR 00/00 A3000 RMK AO2 T00000000 =
2016-12-05 07:35 METAR KSHD 051235Z AUTO 00000KT 10SM CLR 00/00 A2999 RMK AO2 T00010000 =
2016-12-05 07:15 METAR KSHD 051215Z AUTO 00000KT 10SM CLR 01/01 A2998 RMK AO2 T00100007 =
2016-12-05 06:55 METAR KSHD 051155Z AUTO 00000KT 10SM CLR 02/02 A2998 RMK AO2 60001 70012
                 T00230018 10035 20020 =
2016-12-05 06:35 METAR KSHD 051135Z AUTO 00000KT 10SM CLR 02/02 A2997 RMK AO2 T00230020 =
2016-12-05 06:15 METAR KSHD 051115Z AUTO 00000KT 10SM CLR 03/02 A2997 RMK AO2 T00290022 =
2016-12-05 05:55 METAR KSHD 051055Z AUTO 00000KT 10SM CLR 03/02 A2997 RMK AO2 T00300021 =
2016-12-05 05:35 METAR KSHD 051035Z AUTO 20005KT 10SM CLR 03/02 A2997 RMK AO2 T00270021 =
2016-12-05 05:15 METAR KSHD 051015Z AUTO 00000KT 10SM CLR 03/02 A2997 RMK AO2 T00310021 =
2016-12-05 04:55 METAR KSHD 050955Z AUTO 20005KT 10SM CLR 03/02 A2996 RMK AO2 T00340022 =
2016-12-05 04:35 METAR KSHD 050935Z AUTO 19006KT 10SM CLR 03/02 A2996 RMK AO2 T00320022 =
2016-12-05 04:15 METAR KSHD 050915Z AUTO 19006KT 10SM SCT047 03/02 A2997 RMK AO2 T00310022 =
2016-12-05 03:55 METAR KSHD 050855Z AUTO 18004KT 10SM BKN047 03/02 A2998 RMK AO2 60001 T00310024
                 =
2016-12-05 03:35 METAR KSHD 050835Z AUTO 19004KT 10SM BKN046 03/02 A2998 RMK AO2 T00310023 =
2016-12-05 03:15 METAR KSHD 050815Z AUTO 18006KT 10SM SCT030 OVC050 03/03 A2997 RMK AO2 T00310025
                 =
2016-12-05 02:55 METAR KSHD 050755Z AUTO 18004KT 10SM SCT030 OVC060 03/02 A2998 RMK AO2 T00290023
                 =
2016-12-05 02:35 METAR KSHD 050735Z AUTO 18005KT 10SM SCT012 BKN035 OVC060 03/02 A2999 RMK AO2
                 T00270022 =
2016-12-05 02:15 METAR KSHD 050715Z AUTO 19005KT 10SM OVC012 03/02 A2999 RMK AO2 T00250021 =
2016-12-05 01:55 METAR KSHD 050655Z AUTO 17005KT 10SM -DZ BKN012 BKN022 OVC070 03/02 A2999 RMK
                 AO2 P0001 T00250020 =
2016-12-05 01:35 METAR KSHD 050635Z AUTO 17004KT 7SM DZ BKN010 BKN022 OVC040 02/02 A3001 RMK AO2
                 P0001 T00220020 =
2016-12-05 01:15 METAR KSHD 050615Z AUTO 18004KT 7SM DZ OVC010 02/02 A3001 RMK AO2 T00200017 =
2016-12-05 00:55 METAR KSHD 050555Z AUTO 20004KT 7SM RA OVC012 02/02 A3002 RMK AO2 P0003 60011
                 T00200015 10031 20015 400431026 =
2016-12-05 00:35 METAR KSHD 050535Z AUTO 19006KT 4SM -RA BKN016 BKN038 OVC044 02/02 A3001 RMK AO2
                 P0002 T00200015 =
2016-12-05 00:15 METAR KSHD 050515Z AUTO 17006KT 3SM -RA SCT018 BKN040 OVC046 02/02 A3001 RMK AO2
                 P0001 T00180015 =
2016-12-04 23:55 METAR KSHD 050455Z AUTO 18007KT 3SM +DZ SCT006 BKN017 OVC044 02/01 A3002 RMK AO2
                 P0002 T00170013 =
2016-12-04 23:35 METAR KSHD 050435Z AUTO 19007KT 4SM RA SCT006 OVC017 02/01 A3003 RMK AO2 P0001
                 T00170013 =
2016-12-04 23:15 METAR KSHD 050415Z AUTO 18008KT 3SM DZ SCT006 OVC015 02/01 A3003 RMK AO2 P0001
                 T00150012 =
2016-12-04 22:55 METAR KSHD 050355Z AUTO 17006KT 2SM +DZ SCT004 OVC017 02/01 A3005 RMK AO2 P0002
                 T00150012 =
2016-12-04 22:35 METAR KSHD 050335Z AUTO 18005KT 3SM +DZ OVC013 02/01 A3006 RMK AO2 P0001
                 T00150012 =
2016-12-04 22:15 METAR KSHD 050315Z AUTO 18005KT 4SM RA OVC013 02/01 A3007 RMK AO2 T00160011 =
2016-12-04 21:55 METAR KSHD 050255Z AUTO 19005KT 3SM -RA OVC013 02/01 A3007 RMK AO2 P0002 60004
                 T00150010 =
2016-12-04 21:35 METAR KSHD 050235Z AUTO 20006KT 5SM DZ OVC016 02/01 A3009 RMK AO2 T00170008 =
2016-12-04 21:15 METAR KSHD 050215Z AUTO 21004KT 7SM -DZ SCT018 BKN025 OVC047 02/01 A3008 RMK AO2
                 T00170007 =
2016-12-04 20:55 METAR KSHD 050155Z AUTO 17004KT 10SM SCT030 SCT035 OVC047 02/01 A3008 RMK AO2
                 P0001 T00170007 =
2016-12-04 20:35 METAR KSHD 050135Z AUTO 17004KT 5SM -RA SCT022 BKN046 OVC050 02/01 A3010 RMK AO2
                 P0001 T00160006 =
2016-12-04 20:15 METAR KSHD 050115Z AUTO 17006KT 7SM DZ SCT022 BKN041 OVC050 02/00 A3011 RMK AO2
                 T00170003 =
2016-12-04 19:55 METAR KSHD 050055Z AUTO 17006KT 7SM DZ BKN028 OVC046 02/00 A3012 RMK AO2 P0001
                 T00190002 =
2016-12-04 19:35 METAR KSHD 050035Z AUTO 18006KT 7SM -RA OVC028 02/00 A3013 RMK AO2 T00210000 =
2016-12-04 19:15 METAR KSHD 050015Z AUTO 16007KT 10SM DZ OVC030 03/M01 A3013 RMK AO2 T00251006 =
2016-12-04 18:55 METAR KSHD 042355Z AUTO 17007KT 10SM -RA OVC032 03/M01 A3013 RMK AO2 T00311014
                 10043 20031 =
2016-12-04 18:35 METAR KSHD 042335Z AUTO 16006KT 10SM OVC032 04/M02 A3013 RMK AO2 T00351020 =
2016-12-04 18:15 METAR KSHD 042315Z AUTO 16006KT 10SM OVC034 04/M02 A3014 RMK AO2 T00361021 =
2016-12-04 17:55 METAR KSHD 042255Z AUTO 19006KT 10SM OVC036 04/M02 A3014 RMK AO2 T00371020 =
2016-12-04 17:35 METAR KSHD 042235Z AUTO 18005KT 10SM OVC036 04/M02 A3014 RMK AO2 T00381019 =
2016-12-04 17:15 METAR KSHD 042215Z AUTO 17005KT 10SM OVC040 04/M02 A3015 RMK AO2 T00381017 =
2016-12-04 16:55 METAR KSHD 042155Z AUTO 00000KT 10SM BKN042 OVC090 04/M01 A3015 RMK AO2
                 T00381015 =
2016-12-04 16:35 METAR KSHD 042135Z AUTO 16003KT 10SM BKN044 OVC090 04/M02 A3014 RMK AO2
                 T00381017 =
2016-12-04 16:15 METAR KSHD 042115Z AUTO 19003KT 10SM BKN046 OVC100 04/M02 A3016 RMK AO2
                 T00401018 =
2016-12-04 15:55 METAR KSHD 042055Z AUTO 19003KT 10SM SCT050 SCT065 OVC100 04/M02 A3016 RMK AO2
                 T00401020 =
2016-12-04 15:35 METAR KSHD 042035Z AUTO 20003KT 10SM BKN055 OVC065 04/M02 A3017 RMK AO2
                 T00411019 =
2016-12-04 15:15 METAR KSHD 042015Z AUTO 20003KT 10SM OVC065 04/M02 A3017 RMK AO2 T00421019 =
2016-12-04 14:55 METAR KSHD 041955Z AUTO 17005KT 10SM SCT065 BKN120 04/M02 A3017 RMK AO2
                 T00411020 =
2016-12-04 14:35 METAR KSHD 041935Z AUTO 17005KT 10SM CLR 04/M02 A3018 RMK AO2 T00421020 =
2016-12-04 14:15 METAR KSHD 041915Z AUTO 20006KT 10SM CLR 04/M02 A3018 RMK AO2 T00411021 =
2016-12-04 13:55 METAR KSHD 041855Z AUTO 16004KT 10SM CLR 04/M02 A3018 RMK AO2 T00381021 =
2016-12-04 13:35 METAR KSHD 041835Z AUTO 16006KT 10SM SCT110 04/M02 A3019 RMK AO2 T00351023 =
2016-12-04 13:15 METAR KSHD 041815Z AUTO 18003KT 10SM BKN120 03/M02 A3021 RMK AO2 T00311020 =
2016-12-04 12:55 METAR KSHD 041755Z AUTO 20004KT 10SM CLR 03/M02 A3023 RMK AO2 T00301019 10031
                 21022 =
2016-12-04 12:35 METAR KSHD 041735Z AUTO 19005KT 10SM BKN120 03/M02 A3024 RMK AO2 T00301022 =
2016-12-04 12:15 METAR KSHD 041715Z AUTO 00000KT 10SM BKN120 03/M02 A3025 RMK AO2 T00301022 =
2016-12-04 11:55 METAR KSHD 041655Z AUTO 21004KT 10SM SCT120 02/M02 A3025 RMK AO2 T00241022 =

Support USWX by starting your Amazon purchase here.